createdAt,value
2022-12-18T00:00:01.248Z,93.00
2022-12-18T00:05:05.105Z,26.60
2022-12-18T00:10:09.076Z,5.00
2022-12-18T00:15:11.970Z,4.30
2022-12-18T00:20:15.009Z,4.10
2022-12-18T00:25:17.965Z,5.30
2022-12-18T00:30:21.019Z,5.60
2022-12-18T00:35:23.970Z,6.20
2022-12-18T00:40:26.893Z,7.10
2022-12-18T00:45:32.264Z,8.90
2022-12-18T00:50:35.330Z,8.70
2022-12-18T00:55:42.362Z,2.30
2022-12-18T01:00:45.465Z,7.20
2022-12-18T01:05:48.742Z,7.00
2022-12-18T01:10:52.020Z,6.30
2022-12-18T01:15:54.962Z,6.00
2022-12-18T01:20:57.991Z,6.80
2022-12-18T01:26:08.223Z,6.10
2022-12-18T01:31:20.890Z,6.90
2022-12-18T01:36:36.554Z,5.50
2022-12-18T01:41:58.777Z,6.90
2022-12-18T01:47:01.964Z,5.80
2022-12-18T01:52:05.037Z,5.70
2022-12-18T01:57:08.361Z,3.30
2022-12-18T02:02:12.859Z,6.90
2022-12-18T02:07:15.841Z,7.00
2022-12-18T02:12:25.036Z,7.90
2022-12-18T02:18:03.751Z,8.20
2022-12-18T02:23:45.881Z,9.00
2022-12-18T02:28:57.499Z,9.00
2022-12-18T02:34:05.909Z,11.40
2022-12-18T02:39:13.626Z,21.10
2022-12-18T02:44:16.631Z,8.20
2022-12-18T02:49:58.679Z,7.10
2022-12-18T02:55:29.121Z,5.50
2022-12-18T03:00:41.989Z,6.50
2022-12-18T03:06:31.257Z,6.00
2022-12-18T03:11:58.897Z,9.70
2022-12-18T03:17:06.304Z,8.10
2022-12-18T03:22:11.637Z,6.20
2022-12-18T03:27:19.477Z,8.40
2022-12-18T03:32:42.365Z,7.10
2022-12-18T03:37:45.351Z,7.20
2022-12-18T03:42:59.945Z,7.50
2022-12-18T03:48:18.628Z,6.10
2022-12-18T03:54:00.190Z,8.70
2022-12-18T03:59:05.757Z,8.80
2022-12-18T04:04:12.292Z,7.70
2022-12-18T04:09:16.036Z,7.60
2022-12-18T04:14:20.221Z,9.10
2022-12-18T04:19:23.248Z,8.00
2022-12-18T04:24:26.655Z,9.40
2022-12-18T04:29:29.718Z,7.00
2022-12-18T04:34:33.197Z,7.40
2022-12-18T04:39:36.892Z,7.20
2022-12-18T04:44:39.835Z,9.80
2022-12-18T04:49:42.793Z,9.00
2022-12-18T04:54:45.722Z,8.00
2022-12-18T04:59:48.703Z,9.80
2022-12-18T05:04:51.668Z,16.20
2022-12-18T05:09:54.702Z,19.70
2022-12-18T05:14:57.618Z,10.00
2022-12-18T05:20:00.472Z,9.90
2022-12-18T05:25:03.554Z,11.50
2022-12-18T05:30:07.553Z,10.60
2022-12-18T05:35:12.318Z,16.00
2022-12-18T05:40:15.294Z,14.20
2022-12-18T05:45:18.742Z,12.10
2022-12-18T05:50:21.629Z,10.90
2022-12-18T05:55:24.612Z,15.10
2022-12-18T06:00:28.128Z,12.60
2022-12-18T06:05:38.264Z,11.30
2022-12-18T06:10:42.825Z,11.60
2022-12-18T06:15:45.991Z,11.90
2022-12-18T06:20:57.526Z,39.10
2022-12-18T06:26:08.856Z,18.90
2022-12-18T06:31:12.629Z,14.20
2022-12-18T06:36:15.800Z,17.00
2022-12-18T06:41:22.284Z,14.60
2022-12-18T06:46:25.516Z,16.70
2022-12-18T06:51:28.453Z,17.10
2022-12-18T06:56:32.140Z,12.10
2022-12-18T07:01:35.120Z,10.80
2022-12-18T07:06:38.159Z,18.20
2022-12-18T07:11:41.187Z,23.80
2022-12-18T07:16:44.198Z,14.40
2022-12-18T07:21:47.141Z,13.50
2022-12-18T07:26:50.078Z,24.30
2022-12-18T07:31:53.085Z,15.70
2022-12-18T07:36:56.025Z,17.30
2022-12-18T07:42:17.706Z,13.00
2022-12-18T07:47:20.733Z,23.00
2022-12-18T07:52:26.203Z,20.10
2022-12-18T08:02:52.591Z,16.50
2022-12-18T08:07:57.080Z,25.50
2022-12-18T08:13:04.679Z,15.30
2022-12-18T08:18:12.689Z,14.60
2022-12-18T08:23:16.941Z,17.70
2022-12-18T08:28:19.860Z,17.30
2022-12-18T08:33:22.863Z,13.40
2022-12-18T08:38:25.988Z,18.10
2022-12-18T08:43:48.124Z,18.90
2022-12-18T08:48:59.162Z,20.60
2022-12-18T08:54:02.175Z,24.80
2022-12-18T08:59:05.905Z,70.30
2022-12-18T09:04:11.089Z,44.10
2022-12-18T09:09:14.107Z,69.80
2022-12-18T09:14:17.084Z,54.50
2022-12-18T09:19:20.107Z,30.80
2022-12-18T09:24:23.007Z,29.30
2022-12-18T09:29:25.972Z,31.50
2022-12-18T09:34:28.964Z,22.00
2022-12-18T09:39:31.905Z,20.10
2022-12-18T09:44:45.748Z,30.40
2022-12-18T09:49:56.247Z,19.30
2022-12-18T09:55:11.909Z,20.30
2022-12-18T10:00:22.918Z,20.80
2022-12-18T10:05:58.274Z,24.50
2022-12-18T10:11:18.576Z,21.30
2022-12-18T10:16:55.585Z,21.90
2022-12-18T10:22:22.043Z,21.90
2022-12-18T10:27:29.954Z,25.60
2022-12-18T10:32:33.971Z,24.30
2022-12-18T10:37:36.901Z,20.20
2022-12-18T10:42:40.777Z,22.00
2022-12-18T10:47:48.146Z,25.60
2022-12-18T10:53:01.560Z,23.60
2022-12-18T10:58:28.081Z,25.20
2022-12-18T11:03:47.874Z,37.70
2022-12-18T11:09:06.563Z,25.80
2022-12-18T11:14:27.133Z,29.70
2022-12-18T11:19:39.892Z,39.00
2022-12-18T11:24:43.254Z,36.00
2022-12-18T11:29:46.891Z,39.30
2022-12-18T11:35:00.792Z,36.60
2022-12-18T11:40:37.843Z,33.20
2022-12-18T11:45:55.885Z,33.50
2022-12-18T11:51:02.887Z,30.60
2022-12-18T11:56:37.016Z,26.40
2022-12-18T12:02:14.385Z,25.70
2022-12-18T12:07:35.866Z,27.60
2022-12-18T12:13:24.660Z,26.10
2022-12-18T12:18:58.364Z,29.50
2022-12-18T12:24:25.942Z,25.60
2022-12-18T12:29:50.468Z,30.90
2022-12-18T12:35:12.280Z,30.50
2022-12-18T12:40:50.328Z,24.00
2022-12-18T12:46:20.921Z,27.80
2022-12-18T12:51:31.096Z,28.00
2022-12-18T12:56:51.871Z,30.90
2022-12-18T13:02:22.301Z,38.50
2022-12-18T13:07:59.630Z,43.60
2022-12-18T13:13:11.156Z,34.80
2022-12-18T13:18:21.487Z,53.10
2022-12-18T13:23:24.313Z,33.10
2022-12-18T13:28:46.437Z,58.50
2022-12-18T13:39:19.792Z,51.70
2022-12-18T13:44:42.763Z,29.00
2022-12-18T13:49:48.151Z,44.20
2022-12-18T13:54:58.913Z,51.20
2022-12-18T14:00:26.372Z,60.20
2022-12-18T14:05:38.751Z,33.20
2022-12-18T14:10:48.308Z,33.50
2022-12-18T14:15:53.270Z,24.40
2022-12-18T14:21:00.008Z,21.80
2022-12-18T14:26:20.780Z,25.10
2022-12-18T14:31:30.611Z,23.20
2022-12-18T14:36:33.557Z,27.80
2022-12-18T14:41:36.593Z,28.60
2022-12-18T14:46:43.718Z,21.80
2022-12-18T14:51:53.998Z,25.30
2022-12-18T14:57:23.830Z,26.50
2022-12-18T15:02:29.764Z,29.60
2022-12-18T15:07:52.809Z,30.30
2022-12-18T15:13:03.572Z,33.80
2022-12-18T15:18:09.895Z,41.90
2022-12-18T15:23:25.231Z,36.20
2022-12-18T15:28:34.918Z,19.40
2022-12-18T15:33:43.980Z,19.50
2022-12-18T15:38:52.297Z,26.00
2022-12-18T15:43:55.330Z,27.10
2022-12-18T15:49:02.728Z,19.00
2022-12-18T15:54:14.667Z,25.50
2022-12-18T15:59:21.117Z,19.90
2022-12-18T16:04:24.727Z,20.80
2022-12-18T16:09:27.751Z,20.40
2022-12-18T16:14:32.591Z,25.80
2022-12-18T16:19:35.666Z,18.70
2022-12-18T16:24:38.689Z,21.70
2022-12-18T16:29:41.688Z,14.50
2022-12-18T16:34:46.371Z,18.90
2022-12-18T16:39:49.301Z,21.50
2022-12-18T16:44:52.315Z,29.40
2022-12-18T16:49:55.375Z,22.30
2022-12-18T16:54:58.493Z,18.60
2022-12-18T17:00:05.600Z,17.40
2022-12-18T17:05:09.578Z,23.90
2022-12-18T17:10:12.606Z,21.30
2022-12-18T17:15:15.549Z,17.40
2022-12-18T17:20:19.443Z,15.80
2022-12-18T17:25:22.962Z,18.10
2022-12-18T17:30:27.457Z,24.80
2022-12-18T17:35:31.271Z,20.40
2022-12-18T17:40:34.213Z,16.60
2022-12-18T17:45:39.638Z,16.10
2022-12-18T17:50:42.581Z,15.30
2022-12-18T17:55:55.581Z,12.60
2022-12-18T18:00:58.639Z,17.00
2022-12-18T18:06:02.597Z,16.00
2022-12-18T18:11:31.503Z,17.80
2022-12-18T18:16:44.899Z,16.00
2022-12-18T18:21:51.301Z,18.20
2022-12-18T18:26:54.800Z,18.30
2022-12-18T18:31:59.312Z,18.90
2022-12-18T18:37:03.235Z,18.30
2022-12-18T18:42:06.359Z,17.50
2022-12-18T18:47:09.708Z,25.20
2022-12-18T18:52:12.870Z,39.30
2022-12-18T18:57:20.996Z,35.70
2022-12-18T19:02:24.722Z,70.40
2022-12-18T19:07:30.384Z,49.90
2022-12-18T19:12:53.841Z,40.70
2022-12-18T19:17:56.732Z,24.50
2022-12-18T19:23:00.299Z,26.70
2022-12-18T19:28:03.335Z,32.60
2022-12-18T19:33:34.554Z,22.10
2022-12-18T19:38:31.789Z,31.90
2022-12-18T19:43:38.129Z,32.70
2022-12-18T19:48:43.594Z,40.40
2022-12-18T19:53:47.903Z,36.40
2022-12-18T19:58:51.030Z,33.40
2022-12-18T20:03:55.951Z,25.10
2022-12-18T20:09:05.715Z,20.90
2022-12-18T20:14:13.182Z,28.50
2022-12-18T20:19:16.227Z,19.00
2022-12-18T20:24:27.432Z,18.50
2022-12-18T20:29:33.699Z,15.70
2022-12-18T20:34:37.757Z,17.10
2022-12-18T20:39:41.384Z,16.20
2022-12-18T20:44:45.868Z,21.30
2022-12-18T20:49:48.879Z,19.70
2022-12-18T20:54:51.879Z,17.80
2022-12-18T20:59:54.876Z,24.00
2022-12-18T21:04:57.960Z,24.90
2022-12-18T21:10:04.404Z,25.50
2022-12-18T21:15:10.899Z,27.60
2022-12-18T21:20:17.781Z,29.10
2022-12-18T21:25:21.878Z,29.00
2022-12-18T21:30:24.978Z,20.90
2022-12-18T21:35:27.979Z,20.30
2022-12-18T21:40:33.928Z,17.90
2022-12-18T21:45:37.090Z,17.30
2022-12-18T21:50:39.973Z,17.60
2022-12-18T21:55:42.843Z,25.70
2022-12-18T22:00:48.794Z,23.10
2022-12-18T22:06:04.082Z,19.80
2022-12-18T22:11:13.283Z,17.10
2022-12-18T22:16:16.619Z,23.90
2022-12-18T22:21:32.943Z,22.00
2022-12-18T22:26:40.175Z,24.90
2022-12-18T22:31:43.562Z,31.40
2022-12-18T22:36:48.780Z,17.80
2022-12-18T22:41:52.507Z,13.40
2022-12-18T22:47:05.646Z,16.80
2022-12-18T22:52:10.178Z,11.30
2022-12-18T22:57:13.186Z,11.90
2022-12-18T23:02:17.859Z,11.30
2022-12-18T23:07:21.431Z,18.00
2022-12-18T23:12:24.356Z,13.00
2022-12-18T23:17:28.559Z,14.50
2022-12-18T23:22:31.702Z,15.70
2022-12-18T23:27:34.694Z,19.10
2022-12-18T23:32:38.781Z,18.80
2022-12-18T23:37:58.770Z,20.00
2022-12-18T23:43:02.524Z,20.80
2022-12-18T23:48:05.437Z,17.00
2022-12-18T23:53:10.261Z,15.20
2022-12-18T23:58:20.785Z,14.10
